Time,TemperatureF,DewpointF,PressureIn,WindDirection,WindDirectionDegrees,WindSpeedMPH,WindSpeedGustMPH,Humidity,HourlyPrecipIn,Conditions,Clouds,dailyrainin,SolarRadiationWatts/m^2,SoftwareType,DateUTC
2013-10-18 00:12:00,36.0,30.0,-100.00,WNW,287,2.0,5.0,79,0.00,,,0.00,0.000000,,2013-10-18 06:12:00,
2013-10-18 00:21:00,36.0,30.0,-100.00,WNW,287,2.0,5.0,79,0.00,,,0.00,0.000000,,2013-10-18 06:21:00,
2013-10-18 00:30:00,33.0,30.0,-100.00,SW,214,3.0,5.0,88,0.00,,,0.00,0.000000,,2013-10-18 06:30:00,
2013-10-18 00:52:00,33.0,30.0,-100.00,SW,214,3.0,5.0,88,0.00,,,0.00,0.000000,,2013-10-18 06:52:00,
2013-10-18 01:02:00,33.0,30.0,-100.00,SW,214,3.0,5.0,88,0.00,,,0.00,0.000000,,2013-10-18 07:02:00,
2013-10-18 01:11:00,33.0,30.0,-100.00,SW,214,3.0,5.0,88,0.00,,,0.00,0.000000,,2013-10-18 07:11:00,
2013-10-18 01:21:00,33.0,30.0,-100.00,SW,214,3.0,5.0,88,0.00,,,0.00,0.000000,,2013-10-18 07:21:00,
2013-10-18 01:30:00,34.0,31.0,-100.00,WSW,253,5.0,8.0,89,0.00,,,0.00,0.000000,,2013-10-18 07:30:00,
2013-10-18 01:52:00,34.0,31.0,-100.00,WSW,253,5.0,8.0,89,0.00,,,0.00,0.000000,,2013-10-18 07:52:00,
2013-10-18 02:02:00,34.0,31.0,-100.00,WSW,253,5.0,8.0,89,0.00,,,0.00,0.000000,,2013-10-18 08:02:00,
2013-10-18 02:11:00,34.0,31.0,-100.00,WSW,253,5.0,8.0,89,0.00,,,0.00,0.000000,,2013-10-18 08:11:00,
2013-10-18 02:21:00,34.0,31.0,-100.00,WSW,253,5.0,8.0,89,0.00,,,0.00,0.000000,,2013-10-18 08:21:00,
2013-10-18 02:30:00,32.0,29.0,-100.00,West,260,4.0,5.0,89,0.00,,,-99.99,0.000000,,2013-10-18 08:30:00,
2013-10-18 02:52:00,32.0,29.0,-100.00,West,260,4.0,5.0,89,0.00,,,-99.99,0.000000,,2013-10-18 08:52:00,
2013-10-18 03:02:00,32.0,29.0,-100.00,West,260,4.0,5.0,89,0.00,,,-99.99,0.000000,,2013-10-18 09:02:00,
2013-10-18 03:12:00,32.0,29.0,-100.00,West,260,4.0,5.0,89,0.00,,,-99.99,0.000000,,2013-10-18 09:12:00,
2013-10-18 03:21:00,32.0,29.0,-100.00,West,260,4.0,5.0,89,0.00,,,-99.99,0.000000,,2013-10-18 09:21:00,
2013-10-18 03:30:00,30.0,28.0,-100.00,West,276,3.0,8.0,91,0.00,,,0.00,0.000000,,2013-10-18 09:30:00,
2013-10-18 03:53:00,30.0,28.0,-100.00,West,276,3.0,8.0,91,0.00,,,0.00,0.000000,,2013-10-18 09:53:00,
2013-10-18 04:03:00,30.0,28.0,-100.00,West,276,3.0,8.0,91,0.00,,,0.00,0.000000,,2013-10-18 10:03:00,
2013-10-18 04:12:00,30.0,28.0,-100.00,West,276,3.0,8.0,91,0.00,,,0.00,0.000000,,2013-10-18 10:12:00,
2013-10-18 04:23:00,30.0,28.0,-100.00,West,276,3.0,8.0,91,0.00,,,0.00,0.000000,,2013-10-18 10:23:00,
2013-10-18 04:30:00,30.0,28.0,-100.00,WSW,243,5.0,8.0,92,0.00,,,0.00,0.000000,,2013-10-18 10:30:00,
2013-10-18 04:53:00,30.0,28.0,-100.00,WSW,243,5.0,8.0,92,0.00,,,0.00,0.000000,,2013-10-18 10:53:00,
2013-10-18 05:02:00,30.0,28.0,-100.00,WSW,243,5.0,8.0,92,0.00,,,0.00,0.000000,,2013-10-18 11:02:00,
2013-10-18 05:12:00,30.0,28.0,-100.00,WSW,243,5.0,8.0,92,0.00,,,0.00,0.000000,,2013-10-18 11:12:00,
2013-10-18 05:22:00,30.0,28.0,-100.00,WSW,243,5.0,8.0,92,0.00,,,0.00,0.000000,,2013-10-18 11:22:00,
2013-10-18 05:30:00,30.0,28.0,-100.00,West,266,6.0,8.0,92,0.00,,,0.00,0.000000,,2013-10-18 11:30:00,
2013-10-18 05:52:00,30.0,28.0,-100.00,West,266,6.0,8.0,92,0.00,,,0.00,0.000000,,2013-10-18 11:52:00,
2013-10-18 06:02:00,30.0,28.0,-100.00,West,266,6.0,8.0,92,0.00,,,0.00,0.000000,,2013-10-18 12:02:00,
2013-10-18 06:12:00,30.0,28.0,-100.00,West,266,6.0,8.0,92,0.00,,,0.00,0.000000,,2013-10-18 12:12:00,
2013-10-18 06:21:00,30.0,28.0,-100.00,West,266,6.0,8.0,92,0.00,,,0.00,0.000000,,2013-10-18 12:21:00,
2013-10-18 06:30:00,31.0,28.0,-100.00,WNW,283,6.0,8.0,89,0.00,,,0.00,0.000000,,2013-10-18 12:30:00,
2013-10-18 06:52:00,31.0,28.0,-100.00,WNW,283,6.0,8.0,89,0.00,,,0.00,0.000000,,2013-10-18 12:52:00,
2013-10-18 07:01:00,31.0,28.0,-100.00,WNW,283,6.0,8.0,89,0.00,,,0.00,0.000000,,2013-10-18 13:01:00,
2013-10-18 07:11:00,31.0,28.0,-100.00,WNW,283,6.0,8.0,89,0.00,,,0.00,0.000000,,2013-10-18 13:11:00,
2013-10-18 07:21:00,31.0,28.0,-100.00,WNW,283,6.0,8.0,89,0.00,,,0.00,0.000000,,2013-10-18 13:21:00,
2013-10-18 07:30:00,31.0,27.0,-100.00,West,269,7.0,9.0,86,0.00,,,0.00,0.000000,,2013-10-18 13:30:00,
2013-10-18 07:52:00,31.0,27.0,-100.00,West,269,7.0,9.0,86,0.00,,,0.00,0.000000,,2013-10-18 13:52:00,
2013-10-18 08:02:00,31.0,27.0,-100.00,West,269,7.0,9.0,86,0.00,,,0.00,0.000000,,2013-10-18 14:02:00,
2013-10-18 08:11:00,31.0,27.0,-100.00,West,269,7.0,9.0,86,0.00,,,0.00,0.000000,,2013-10-18 14:11:00,
2013-10-18 08:21:00,31.0,27.0,-100.00,West,269,7.0,9.0,86,0.00,,,0.00,0.000000,,2013-10-18 14:21:00,
2013-10-18 08:30:00,29.0,25.0,-100.00,West,260,6.0,10.0,86,0.00,,,0.00,9.000000,,2013-10-18 14:30:00,
2013-10-18 08:52:00,29.0,25.0,-100.00,West,260,6.0,10.0,86,0.00,,,0.00,9.000000,,2013-10-18 14:52:00,
2013-10-18 09:02:00,29.0,25.0,-100.00,West,260,6.0,10.0,86,0.00,,,0.00,9.000000,,2013-10-18 15:02:00,
2013-10-18 09:11:00,29.0,25.0,-100.00,West,260,6.0,10.0,86,0.00,,,0.00,9.000000,,2013-10-18 15:11:00,
2013-10-18 09:22:00,29.0,25.0,-100.00,West,260,6.0,10.0,86,0.00,,,0.00,9.000000,,2013-10-18 15:22:00,
2013-10-18 09:30:00,39.0,34.0,-100.00,WNW,285,7.0,9.0,81,0.00,,,0.00,154.000000,,2013-10-18 15:30:00,
2013-10-18 09:54:00,39.0,34.0,-100.00,WNW,285,7.0,9.0,81,0.00,,,0.00,154.000000,,2013-10-18 15:54:00,
2013-10-18 10:04:00,39.0,34.0,-100.00,WNW,285,7.0,9.0,81,0.00,,,0.00,154.000000,,2013-10-18 16:04:00,
2013-10-18 10:24:00,39.0,34.0,-100.00,WNW,285,7.0,9.0,81,0.00,,,0.00,154.000000,,2013-10-18 16:24:00,
2013-10-18 10:30:00,45.0,32.0,-100.00,WNW,299,7.0,10.0,61,0.00,,,0.00,344.000000,,2013-10-18 16:30:00,
2013-10-18 10:53:00,45.0,32.0,-100.00,WNW,299,7.0,10.0,61,0.00,,,0.00,344.000000,,2013-10-18 16:53:00,
2013-10-18 11:03:00,45.0,32.0,-100.00,WNW,299,7.0,10.0,61,0.00,,,0.00,344.000000,,2013-10-18 17:03:00,
2013-10-18 11:12:00,45.0,32.0,-100.00,WNW,299,7.0,10.0,61,0.00,,,0.00,344.000000,,2013-10-18 17:12:00,
2013-10-18 11:22:00,45.0,32.0,-100.00,WNW,299,7.0,10.0,61,0.00,,,0.00,344.000000,,2013-10-18 17:22:00,
2013-10-18 11:30:00,49.0,32.0,-100.00,WSW,249,9.0,14.0,51,0.00,,,0.00,513.000000,,2013-10-18 17:30:00,
2013-10-18 11:52:00,49.0,32.0,-100.00,WSW,249,9.0,14.0,51,0.00,,,0.00,513.000000,,2013-10-18 17:52:00,
2013-10-18 12:02:00,49.0,32.0,-100.00,WSW,249,9.0,14.0,51,0.00,,,0.00,513.000000,,2013-10-18 18:02:00,
2013-10-18 12:12:00,49.0,32.0,-100.00,WSW,249,9.0,14.0,51,0.00,,,0.00,513.000000,,2013-10-18 18:12:00,
2013-10-18 12:21:00,49.0,32.0,-100.00,WSW,249,9.0,14.0,51,0.00,,,0.00,513.000000,,2013-10-18 18:21:00,
2013-10-18 12:30:00,51.0,31.0,-100.00,SW,231,8.0,16.0,47,0.00,,,0.00,632.000000,,2013-10-18 18:30:00,
2013-10-18 12:52:00,51.0,31.0,-100.00,SW,231,8.0,16.0,47,0.00,,,0.00,632.000000,,2013-10-18 18:52:00,
2013-10-18 13:01:00,51.0,31.0,-100.00,SW,231,8.0,16.0,47,0.00,,,0.00,632.000000,,2013-10-18 19:01:00,
2013-10-18 13:12:00,51.0,31.0,-100.00,SW,231,8.0,16.0,47,0.00,,,0.00,632.000000,,2013-10-18 19:12:00,
2013-10-18 13:21:00,51.0,31.0,-100.00,SW,231,8.0,16.0,47,0.00,,,0.00,632.000000,,2013-10-18 19:21:00,
2013-10-18 13:30:00,54.0,32.0,-100.00,SW,234,8.0,14.0,43,0.00,,,0.00,699.000000,,2013-10-18 19:30:00,
2013-10-18 13:52:00,54.0,32.0,-100.00,SW,234,8.0,14.0,43,0.00,,,0.00,699.000000,,2013-10-18 19:52:00,
2013-10-18 14:02:00,54.0,32.0,-100.00,SW,234,8.0,14.0,43,0.00,,,0.00,699.000000,,2013-10-18 20:02:00,
2013-10-18 14:11:00,54.0,32.0,-100.00,SW,234,8.0,14.0,43,0.00,,,0.00,699.000000,,2013-10-18 20:11:00,
2013-10-18 14:22:00,54.0,32.0,-100.00,SW,234,8.0,14.0,43,0.00,,,0.00,699.000000,,2013-10-18 20:22:00,
2013-10-18 14:30:00,56.0,31.0,-100.00,SW,217,7.0,14.0,39,0.00,,,0.00,697.000000,,2013-10-18 20:30:00,
2013-10-18 14:52:00,56.0,31.0,-100.00,SW,217,7.0,14.0,39,0.00,,,0.00,697.000000,,2013-10-18 20:52:00,
2013-10-18 15:02:00,56.0,31.0,-100.00,SW,217,7.0,14.0,39,0.00,,,0.00,697.000000,,2013-10-18 21:02:00,
2013-10-18 15:11:00,56.0,31.0,-100.00,SW,217,7.0,14.0,39,0.00,,,0.00,697.000000,,2013-10-18 21:11:00,
2013-10-18 15:22:00,56.0,31.0,-100.00,SW,217,7.0,14.0,39,0.00,,,0.00,697.000000,,2013-10-18 21:22:00,
2013-10-18 15:30:00,58.0,32.0,-100.00,SW,217,8.0,16.0,37,0.00,,,0.00,630.000000,,2013-10-18 21:30:00,
2013-10-18 15:54:00,58.0,32.0,-100.00,SW,217,8.0,16.0,37,0.00,,,0.00,630.000000,,2013-10-18 21:54:00,
2013-10-18 16:04:00,58.0,32.0,-100.00,SW,217,8.0,16.0,37,0.00,,,0.00,630.000000,,2013-10-18 22:04:00,
2013-10-18 16:13:00,58.0,32.0,-100.00,SW,217,8.0,16.0,37,0.00,,,0.00,630.000000,,2013-10-18 22:13:00,
2013-10-18 16:24:00,58.0,32.0,-100.00,SW,217,8.0,16.0,37,0.00,,,0.00,630.000000,,2013-10-18 22:24:00,
2013-10-18 16:30:00,59.0,30.0,-100.00,SSW,205,7.0,15.0,33,0.00,,,0.00,504.000000,,2013-10-18 22:30:00,
2013-10-18 17:12:00,59.0,30.0,-100.00,SSW,205,7.0,15.0,33,0.00,,,0.00,504.000000,,2013-10-18 23:12:00,
2013-10-18 17:23:00,59.0,30.0,-100.00,SSW,205,7.0,15.0,33,0.00,,,0.00,504.000000,,2013-10-18 23:23:00,
2013-10-18 17:30:00,58.0,29.0,-100.00,WSW,242,7.0,16.0,33,0.00,,,0.00,329.000000,,2013-10-18 23:30:00,
2013-10-18 18:11:00,58.0,29.0,-100.00,WSW,242,7.0,16.0,33,0.00,,,0.00,329.000000,,2013-10-19 00:11:00,
2013-10-18 18:21:00,58.0,29.0,-100.00,WSW,242,7.0,16.0,33,0.00,,,0.00,329.000000,,2013-10-19 00:21:00,
2013-10-18 18:30:00,54.0,28.0,-100.00,WSW,237,6.0,12.0,36,0.00,,,0.00,91.000000,,2013-10-19 00:30:00,
2013-10-18 18:52:00,54.0,28.0,-100.00,WSW,237,6.0,12.0,36,0.00,,,0.00,91.000000,,2013-10-19 00:52:00,
2013-10-18 19:02:00,54.0,28.0,-100.00,WSW,237,6.0,12.0,36,0.00,,,0.00,91.000000,,2013-10-19 01:02:00,
2013-10-18 19:11:00,54.0,28.0,-100.00,WSW,237,6.0,12.0,36,0.00,,,0.00,91.000000,,2013-10-19 01:11:00,
2013-10-18 19:21:00,54.0,28.0,-100.00,WSW,237,6.0,12.0,36,0.00,,,0.00,91.000000,,2013-10-19 01:21:00,
2013-10-18 19:30:00,51.0,28.0,-100.00,West,277,4.0,11.0,40,0.00,,,0.00,3.000000,,2013-10-19 01:30:00,
2013-10-18 19:53:00,51.0,28.0,-100.00,West,277,4.0,11.0,40,0.00,,,0.00,3.000000,,2013-10-19 01:53:00,
2013-10-18 20:02:00,51.0,28.0,-100.00,West,277,4.0,11.0,40,0.00,,,0.00,3.000000,,2013-10-19 02:02:00,
2013-10-18 20:12:00,51.0,28.0,-100.00,West,277,4.0,11.0,40,0.00,,,0.00,3.000000,,2013-10-19 02:12:00,
2013-10-18 20:21:00,51.0,28.0,-100.00,West,277,4.0,11.0,40,0.00,,,0.00,3.000000,,2013-10-19 02:21:00,
2013-10-18 20:30:00,47.0,27.0,-100.00,West,280,4.0,7.0,45,0.00,,,0.00,0.000000,,2013-10-19 02:30:00,
2013-10-18 20:52:00,47.0,27.0,-100.00,West,280,4.0,7.0,45,0.00,,,0.00,0.000000,,2013-10-19 02:52:00,
2013-10-18 21:02:00,47.0,27.0,-100.00,West,280,4.0,7.0,45,0.00,,,0.00,0.000000,,2013-10-19 03:02:00,
2013-10-18 21:12:00,47.0,27.0,-100.00,West,280,4.0,7.0,45,0.00,,,0.00,0.000000,,2013-10-19 03:12:00,
2013-10-18 21:22:00,47.0,27.0,-100.00,West,280,4.0,7.0,45,0.00,,,0.00,0.000000,,2013-10-19 03:22:00,
2013-10-18 21:30:00,47.0,28.0,-100.00,WNW,296,6.0,9.0,47,0.00,,,0.00,0.000000,,2013-10-19 03:30:00,
2013-10-18 21:55:00,47.0,28.0,-100.00,WNW,296,6.0,9.0,47,0.00,,,0.00,0.000000,,2013-10-19 03:55:00,
2013-10-18 22:05:00,47.0,28.0,-100.00,WNW,296,6.0,9.0,47,0.00,,,0.00,0.000000,,2013-10-19 04:05:00,
2013-10-18 22:13:00,47.0,28.0,-100.00,WNW,296,6.0,9.0,47,0.00,,,0.00,0.000000,,2013-10-19 04:13:00,
2013-10-18 22:24:00,47.0,28.0,-100.00,WNW,296,6.0,9.0,47,0.00,,,0.00,0.000000,,2013-10-19 04:24:00,
2013-10-18 22:30:00,45.0,28.0,-100.00,WNW,299,6.0,10.0,52,0.00,,,0.00,0.000000,,2013-10-19 04:30:00,
2013-10-18 22:54:00,45.0,28.0,-100.00,WNW,299,6.0,10.0,52,0.00,,,0.00,0.000000,,2013-10-19 04:54:00,
2013-10-18 23:04:00,45.0,28.0,-100.00,WNW,299,6.0,10.0,52,0.00,,,0.00,0.000000,,2013-10-19 05:04:00,
2013-10-18 23:13:00,45.0,28.0,-100.00,WNW,299,6.0,10.0,52,0.00,,,0.00,0.000000,,2013-10-19 05:13:00,
2013-10-18 23:22:00,45.0,28.0,-100.00,WNW,299,6.0,10.0,52,0.00,,,0.00,0.000000,,2013-10-19 05:22:00,
2013-10-18 23:30:00,44.0,28.0,-100.00,West,281,6.0,9.0,52,0.00,,,0.00,0.000000,,2013-10-19 05:30:00,
2013-10-18 23:52:00,44.0,28.0,-100.00,West,281,6.0,9.0,52,0.00,,,0.00,0.000000,,2013-10-19 05:52:00,